Time;durP1;ratioP1;P1;durP2;ratioP2;P2;SDS_P1;SDS_P2;PMS_P1;PMS_P2;Temp;Humidity;BMP_temperature;BMP_pressure;BME280_temperature;BME280_humidity;BME280_pressure;Samples;Min_cycle;Max_cycle;Signal;HPM_P1;HPM_P2
2022/07/02 00:00:20;;;;;;;0.10;0.10;;;14.70;99.90;;;;;;4999143;28;20106;-73
2022/07/02 00:02:50;;;;;;;0.13;0.13;;;14.60;99.90;;;;;;4992439;28;20050;-73
2022/07/02 00:05:20;;;;;;;0.30;0.30;;;14.30;99.90;;;;;;4991113;28;20026;-73
2022/07/02 00:07:46;;;;;;;0.10;0.10;;;14.10;99.90;;;;;;4992267;28;20030;-73
2022/07/02 00:10:13;;;;;;;0.10;0.10;;;14.10;99.90;;;;;;4992356;28;20038;-73
2022/07/02 00:12:40;;;;;;;0.20;0.20;;;14.00;99.90;;;;;;4992401;28;20097;-73
2022/07/02 00:15:06;;;;;;;0.20;0.20;;;13.90;99.90;;;;;;4992394;28;20018;-73
2022/07/02 00:17:33;;;;;;;0.10;0.10;;;13.70;99.90;;;;;;4992246;28;20057;-73
2022/07/02 00:20:01;;;;;;;0.20;0.20;;;13.70;99.90;;;;;;4992271;28;20030;-74
2022/07/02 00:22:28;;;;;;;0.17;0.17;;;13.60;99.90;;;;;;4994546;28;20030;-74
2022/07/02 00:24:54;;;;;;;0.13;0.13;;;13.60;99.90;;;;;;4996249;28;20022;-74
2022/07/02 00:27:19;;;;;;;0.10;0.10;;;13.60;99.90;;;;;;4995877;28;20080;-74
2022/07/02 00:29:58;;;;;;;0.10;0.10;;;13.70;99.90;;;;;;4995785;28;20033;-74
2022/07/02 00:32:32;;;;;;;0.10;0.10;;;13.70;99.90;;;;;;4995872;28;20434;-74
2022/07/02 00:35:01;;;;;;;0.10;0.10;;;13.70;99.90;;;;;;4995872;28;20060;-74
2022/07/02 00:37:27;;;;;;;0.10;0.10;;;13.70;99.90;;;;;;4995778;28;20033;-74
2022/07/02 00:39:56;;;;;;;0.10;0.10;;;13.80;99.90;;;;;;4995665;28;20101;-72
2022/07/02 00:42:25;;;;;;;0.10;0.10;;;13.90;99.90;;;;;;4995626;28;20026;-72
2022/07/02 00:44:52;;;;;;;0.10;0.10;;;14.00;99.90;;;;;;4995660;28;20053;-72
2022/07/02 00:47:21;;;;;;;0.10;0.10;;;14.20;99.90;;;;;;4995506;28;20031;-72
2022/07/02 00:49:48;;;;;;;0.13;0.13;;;14.30;99.90;;;;;;4994083;28;20034;-72
2022/07/02 00:52:14;;;;;;;0.10;0.10;;;14.20;99.90;;;;;;4994334;28;20080;-72
2022/07/02 00:54:40;;;;;;;0.10;0.10;;;14.00;99.90;;;;;;4995430;28;20097;-72
2022/07/02 00:57:06;;;;;;;0.10;0.10;;;13.80;99.90;;;;;;4995230;28;20441;-72
2022/07/02 00:59:33;;;;;;;0.10;0.10;;;13.90;99.90;;;;;;4995275;28;20026;-71
2022/07/02 01:01:59;;;;;;;0.10;0.10;;;13.80;99.90;;;;;;4995299;28;20031;-72
2022/07/02 01:04:29;;;;;;;0.13;0.13;;;13.70;99.90;;;;;;4994027;28;20398;-72
2022/07/02 01:07:02;;;;;;;0.10;0.10;;;13.70;99.90;;;;;;4993945;28;20026;-72
2022/07/02 01:12:17;;;;;;;0.10;0.10;;;13.80;99.90;;;;;;4995103;28;20145;-72
2022/07/02 01:14:45;;;;;;;0.20;0.20;;;13.90;99.90;;;;;;4995039;28;20359;-72
2022/07/02 01:17:10;;;;;;;0.17;0.17;;;13.70;99.90;;;;;;4994987;28;20042;-73
2022/07/02 01:19:36;;;;;;;0.10;0.10;;;13.70;99.90;;;;;;4994984;28;20030;-73
2022/07/02 01:22:16;;;;;;;0.10;0.10;;;13.80;99.90;;;;;;4993798;28;20516;-74
2022/07/02 01:24:43;;;;;;;0.10;0.10;;;13.90;99.90;;;;;;4993708;28;20034;-73
2022/07/02 01:27:09;;;;;;;0.10;0.10;;;13.90;99.90;;;;;;4993467;28;20031;-74
2022/07/02 01:29:35;;;;;;;0.20;0.20;;;13.80;99.90;;;;;;4994632;28;20505;-73
2022/07/02 01:32:01;;;;;;;0.05;0.05;;;13.80;99.90;;;;;;4994744;28;20367;-73
2022/07/02 01:34:27;;;;;;;3.95;3.40;;;13.80;99.90;;;;;;4993706;28;20030;-73
2022/07/02 01:36:53;;;;;;;0.10;0.10;;;13.80;99.90;;;;;;4994623;28;20015;-73
2022/07/02 01:39:25;;;;;;;0.10;0.10;;;13.70;99.90;;;;;;4994593;28;20031;-73
2022/07/02 01:41:51;;;;;;;0.20;0.20;;;13.60;99.90;;;;;;4994603;28;20042;-76
2022/07/02 01:44:17;;;;;;;0.10;0.10;;;13.50;99.90;;;;;;4994788;28;20046;-73
2022/07/02 01:46:45;;;;;;;0.15;0.15;;;13.40;99.90;;;;;;4993178;28;20062;-73
2022/07/02 01:49:11;;;;;;;0.20;0.20;;;13.50;99.90;;;;;;4993033;28;20064;-73
2022/07/02 01:51:37;;;;;;;2.28;0.93;;;13.50;99.90;;;;;;4994410;28;20030;-73
2022/07/02 01:54:03;;;;;;;0.10;0.10;;;13.40;99.90;;;;;;4994425;28;20033;-73
2022/07/02 01:56:35;;;;;;;0.10;0.10;;;13.30;99.90;;;;;;4994392;28;20026;-73
2022/07/02 01:59:02;;;;;;;0.10;0.10;;;13.30;99.90;;;;;;4993147;28;20528;-73
2022/07/02 02:01:27;;;;;;;0.10;0.10;;;13.40;99.90;;;;;;4994201;28;20501;-73
2022/07/02 02:03:53;;;;;;;0.20;0.20;;;13.40;99.90;;;;;;4994117;28;20022;-73
2022/07/02 02:06:19;;;;;;;0.15;0.15;;;13.30;99.90;;;;;;4994159;28;20041;-73
2022/07/02 02:08:44;;;;;;;0.20;0.20;;;13.30;99.90;;;;;;4994045;28;20497;-73
2022/07/02 02:11:10;;;;;;;0.10;0.10;;;13.20;99.90;;;;;;4994055;28;20015;-73
2022/07/02 02:13:36;;;;;;;0.10;0.10;;;13.20;99.90;;;;;;4993960;28;20026;-73
2022/07/02 02:16:02;;;;;;;0.10;0.10;;;13.00;99.90;;;;;;4993964;28;20022;-73
2022/07/02 02:18:28;;;;;;;0.10;0.10;;;13.00;99.90;;;;;;4993890;28;20073;-73
2022/07/02 02:20:53;;;;;;;0.20;0.20;;;13.00;99.90;;;;;;4993722;28;20034;-73
2022/07/02 02:23:19;;;;;;;0.10;0.10;;;13.00;99.90;;;;;;4976335;28;20039;-72
2022/07/02 02:25:45;;;;;;;0.10;0.10;;;12.90;99.90;;;;;;4992473;28;20097;-72
2022/07/02 02:28:11;;;;;;;0.40;0.40;;;12.90;99.90;;;;;;4992335;28;20531;-72
2022/07/02 02:30:36;;;;;;;0.10;0.10;;;12.90;99.90;;;;;;4992372;28;20367;-72
2022/07/02 02:33:02;;;;;;;0.10;0.10;;;12.70;99.90;;;;;;4992229;28;20033;-72
2022/07/02 02:35:28;;;;;;;0.10;0.10;;;12.70;99.90;;;;;;4993625;28;20022;-72
2022/07/02 02:37:54;;;;;;;0.20;0.20;;;12.60;99.90;;;;;;4993499;28;20026;-72
2022/07/02 02:40:19;;;;;;;0.10;0.10;;;12.60;99.90;;;;;;4992122;28;20033;-72
2022/07/02 02:42:45;;;;;;;0.10;0.10;;;12.50;99.90;;;;;;4992640;28;20041;-72
2022/07/02 02:45:11;;;;;;;0.10;0.10;;;12.60;99.90;;;;;;4994411;28;20033;-76
2022/07/02 02:47:37;;;;;;;0.10;0.10;;;12.60;99.90;;;;;;4993678;28;20026;-76
2022/07/02 02:50:03;;;;;;;0.10;0.10;;;12.70;99.90;;;;;;4993325;28;20030;-75
2022/07/02 02:52:29;;;;;;;0.10;0.10;;;12.70;99.90;;;;;;4992190;28;20105;-76
2022/07/02 02:54:55;;;;;;;0.10;0.10;;;12.80;99.90;;;;;;4992150;28;20501;-76
2022/07/02 02:57:21;;;;;;;0.15;0.15;;;12.60;99.90;;;;;;4993148;28;20104;-76
2022/07/02 02:59:46;;;;;;;0.17;0.17;;;12.70;99.90;;;;;;4993194;28;20072;-76
2022/07/02 03:02:12;;;;;;;0.10;0.10;;;12.60;99.90;;;;;;4993319;28;20072;-76
2022/07/02 03:04:38;;;;;;;0.20;0.20;;;12.50;99.90;;;;;;4975633;28;20493;-76
2022/07/02 03:07:04;;;;;;;0.13;0.13;;;12.60;99.90;;;;;;4992110;28;20026;-76
2022/07/02 03:09:29;;;;;;;0.10;0.10;;;12.50;99.90;;;;;;4993152;28;20030;-76
2022/07/02 03:11:55;;;;;;;0.20;0.20;;;12.50;99.90;;;;;;4991927;28;20022;-75
2022/07/02 03:14:21;;;;;;;0.20;0.20;;;12.50;99.90;;;;;;4993159;28;20057;-74
2022/07/02 03:16:47;;;;;;;0.10;0.10;;;12.50;99.90;;;;;;4992995;28;20342;-76
2022/07/02 03:19:12;;;;;;;0.10;0.10;;;12.40;99.90;;;;;;4993090;28;20492;-75
2022/07/02 03:21:38;;;;;;;0.20;0.20;;;12.50;99.90;;;;;;4991881;28;20053;-75
2022/07/02 03:24:04;;;;;;;0.20;0.20;;;12.50;99.90;;;;;;4991659;28;20023;-76
2022/07/02 03:26:30;;;;;;;0.10;0.10;;;12.50;99.90;;;;;;4991763;28;20022;-76
2022/07/02 03:28:55;;;;;;;0.10;0.10;;;12.60;99.90;;;;;;4992681;28;20077;-76
2022/07/02 03:31:21;;;;;;;0.10;0.10;;;12.60;99.90;;;;;;4991528;28;20057;-76
2022/07/02 03:33:47;;;;;;;0.10;0.10;;;12.60;99.90;;;;;;4993708;28;20505;-75
2022/07/02 03:36:12;;;;;;;0.10;0.10;;;12.70;99.90;;;;;;4991648;28;20022;-76
2022/07/02 03:38:39;;;;;;;0.10;0.10;;;12.70;99.90;;;;;;4992760;28;20154;-75
2022/07/02 03:41:06;;;;;;;0.10;0.10;;;12.50;99.90;;;;;;4991389;28;20034;-75
2022/07/02 03:43:32;;;;;;;0.10;0.10;;;12.60;99.90;;;;;;5017055;23;20120;-74
2022/07/02 03:45:59;;;;;;;0.20;0.20;;;12.80;99.90;;;;;;5012074;28;20032;-73
2022/07/02 03:48:24;;;;;;;0.10;0.10;;;12.70;99.90;;;;;;5011009;28;20033;-73
2022/07/02 03:50:50;;;;;;;0.10;0.10;;;12.60;99.90;;;;;;4993897;28;20023;-72
2022/07/02 03:53:16;;;;;;;0.10;0.10;;;12.40;99.90;;;;;;4992589;28;20065;-75
2022/07/02 03:55:42;;;;;;;0.15;0.15;;;12.40;99.90;;;;;;4992701;28;20019;-72
2022/07/02 03:58:08;;;;;;;0.30;0.30;;;12.20;99.90;;;;;;4996083;28;20026;-72
2022/07/02 04:00:34;;;;;;;0.20;0.20;;;12.20;99.90;;;;;;4996594;28;20022;-72
2022/07/02 04:02:59;;;;;;;0.20;0.20;;;12.20;99.90;;;;;;4995427;28;20060;-75
2022/07/02 04:05:25;;;;;;;0.10;0.10;;;12.30;99.90;;;;;;4995172;28;20031;-73
2022/07/02 04:07:51;;;;;;;0.10;0.10;;;12.30;99.90;;;;;;4978938;28;20022;-73
2022/07/02 04:10:17;;;;;;;0.10;0.10;;;12.70;99.90;;;;;;4994992;28;20080;-73
2022/07/02 04:12:42;;;;;;;0.20;0.20;;;12.50;99.90;;;;;;4996262;28;20110;-73
2022/07/02 04:15:09;;;;;;;0.10;0.10;;;12.30;99.90;;;;;;4978939;28;20023;-73
2022/07/02 04:17:35;;;;;;;0.10;0.10;;;12.60;99.90;;;;;;4995123;28;20022;-73
2022/07/02 04:20:01;;;;;;;0.10;0.10;;;12.70;99.90;;;;;;4994890;28;20026;-73
2022/07/02 04:22:28;;;;;;;0.20;0.20;;;12.80;99.90;;;;;;4995095;28;20090;-73
2022/07/02 04:24:54;;;;;;;0.17;0.17;;;12.90;99.90;;;;;;4996202;28;20014;-73
2022/07/02 04:27:20;;;;;;;0.20;0.20;;;12.60;99.90;;;;;;4996022;28;20145;-73
2022/07/02 04:29:46;;;;;;;0.20;0.20;;;12.60;99.90;;;;;;4994681;28;20097;-73
2022/07/02 04:32:12;;;;;;;0.10;0.10;;;12.90;99.90;;;;;;4996049;28;20393;-74
2022/07/02 04:34:38;;;;;;;0.30;0.30;;;12.80;99.90;;;;;;4978553;28;20133;-73
2022/07/02 04:37:04;;;;;;;0.10;0.10;;;13.00;99.90;;;;;;4994632;28;20049;-73
2022/07/02 04:39:30;;;;;;;0.10;0.10;;;13.30;99.90;;;;;;4994441;28;20034;-73
2022/07/02 04:41:55;;;;;;;0.10;0.10;;;13.10;99.90;;;;;;4994585;28;20174;-73
2022/07/02 04:44:21;;;;;;;0.20;0.20;;;12.90;99.90;;;;;;4996140;28;20038;-73
2022/07/02 04:46:47;;;;;;;0.10;0.10;;;12.90;99.90;;;;;;4995833;28;20030;-73
2022/07/02 04:49:13;;;;;;;0.10;0.10;;;12.80;99.90;;;;;;4995436;28;20363;-72
2022/07/02 04:51:39;;;;;;;0.10;0.10;;;12.70;99.90;;;;;;4995692;28;20478;-73
2022/07/02 04:54:04;;;;;;;0.10;0.10;;;12.80;99.90;;;;;;4995432;28;20019;-73
2022/07/02 04:56:30;;;;;;;0.13;0.13;;;12.80;99.90;;;;;;4995551;28;20037;-73
2022/07/02 04:58:56;;;;;;;0.10;0.10;;;12.90;99.90;;;;;;4995330;28;20509;-73
2022/07/02 05:01:23;;;;;;;0.10;0.10;;;12.80;99.90;;;;;;4994234;28;20041;-73
2022/07/02 05:03:52;;;;;;;0.10;0.10;;;12.80;99.90;;;;;;4995550;28;20095;-73
2022/07/02 05:06:19;;;;;;;0.20;0.20;;;12.70;99.90;;;;;;4994106;28;20022;-73
2022/07/02 05:08:45;;;;;;;0.10;0.10;;;12.60;99.90;;;;;;4994416;28;20034;-73
2022/07/02 05:11:10;;;;;;;0.10;0.10;;;12.70;99.90;;;;;;4977460;28;20022;-75
2022/07/02 05:13:36;;;;;;;0.10;0.10;;;12.60;99.90;;;;;;4995418;28;20407;-73
2022/07/02 05:16:02;;;;;;;0.20;0.20;;;12.60;99.90;;;;;;4993967;28;20022;-73
2022/07/02 05:18:28;;;;;;;0.10;0.10;;;12.70;99.90;;;;;;4977926;28;20548;-75
2022/07/02 05:20:53;;;;;;;0.10;0.10;;;13.00;99.90;;;;;;4993813;28;20054;-73
2022/07/02 05:23:20;;;;;;;0.10;0.10;;;13.10;99.90;;;;;;4995030;28;20081;-73
2022/07/02 05:25:46;;;;;;;0.10;0.10;;;13.30;99.90;;;;;;4976303;28;20556;-73
2022/07/02 05:28:12;;;;;;;0.28;0.28;;;13.30;99.90;;;;;;4975135;28;20027;-73
2022/07/02 05:30:37;;;;;;;0.10;0.10;;;13.20;99.90;;;;;;4958105;28;20019;-73
2022/07/02 05:33:03;;;;;;;0.20;0.20;;;13.20;99.90;;;;;;4974422;28;20019;-73
2022/07/02 05:35:29;;;;;;;0.10;0.10;;;13.40;99.90;;;;;;4975820;28;20029;-73
2022/07/02 05:37:55;;;;;;;0.20;0.20;;;13.70;99.90;;;;;;4974329;28;20035;-73
2022/07/02 05:40:20;;;;;;;0.10;0.10;;;13.90;99.90;;;;;;4975553;28;20042;-75
2022/07/02 05:42:46;;;;;;;0.10;0.10;;;14.10;99.90;;;;;;4975104;28;20422;-73
2022/07/02 05:45:12;;;;;;;0.65;0.52;;;14.10;99.90;;;;;;4994861;28;20485;-72
2022/07/02 05:47:38;;;;;;;0.25;0.25;;;14.10;99.90;;;;;;4993439;28;20030;-73
2022/07/02 05:50:04;;;;;;;0.10;0.10;;;13.90;99.90;;;;;;4993528;28;20273;-73
2022/07/02 05:52:30;;;;;;;0.10;0.10;;;13.70;99.90;;;;;;4994733;28;20030;-73
2022/07/02 05:54:55;;;;;;;0.10;0.10;;;13.60;99.90;;;;;;4993646;28;20030;-75
2022/07/02 05:57:21;;;;;;;0.10;0.10;;;13.90;99.90;;;;;;4994617;28;20050;-75
2022/07/02 05:59:47;;;;;;;0.10;0.10;;;14.20;99.90;;;;;;4977083;28;20149;-73
2022/07/02 06:02:13;;;;;;;0.10;0.10;;;14.40;99.90;;;;;;4993236;28;20054;-73
2022/07/02 06:04:38;;;;;;;0.10;0.10;;;14.40;99.90;;;;;;4989344;28;20037;-73
2022/07/02 06:09:49;;;;;;;0.05;0.05;;;14.60;99.90;;;;;;4980273;28;20043;-75
2022/07/02 06:12:15;;;;;;;0.08;0.08;;;14.70;99.90;;;;;;4979775;28;20141;-75
2022/07/02 06:14:41;;;;;;;0.10;0.10;;;14.90;99.90;;;;;;4977085;28;20035;-76
2022/07/02 06:17:07;;;;;;;0.00;0.00;;;14.90;99.90;;;;;;4976140;28;20344;-72
2022/07/02 06:19:33;;;;;;;0.20;0.20;;;15.00;99.90;;;;;;4972792;28;20105;-75
2022/07/02 06:21:59;;;;;;;0.52;0.52;;;15.10;99.90;;;;;;4986476;28;20022;-73
2022/07/02 06:24:25;;;;;;;0.10;0.10;;;15.00;99.90;;;;;;4984473;28;20022;-72
2022/07/02 06:26:50;;;;;;;0.10;0.10;;;15.00;99.90;;;;;;4957538;28;20399;-72
2022/07/02 06:29:16;;;;;;;5.57;4.32;;;15.10;99.90;;;;;;4973387;28;20023;-75
2022/07/02 06:31:42;;;;;;;0.20;0.20;;;15.00;99.90;;;;;;4973629;28;20216;-75
2022/07/02 06:34:07;;;;;;;0.10;0.10;;;15.30;99.90;;;;;;4973485;28;20026;-75
2022/07/02 06:36:33;;;;;;;0.10;0.10;;;15.30;99.90;;;;;;4974632;28;20027;-75
2022/07/02 06:38:59;;;;;;;0.05;0.05;;;15.50;99.90;;;;;;4986233;28;20533;-74
2022/07/02 06:44:09;;;;;;;0.22;0.22;;;16.10;99.90;;;;;;4974074;28;20487;-74
2022/07/02 06:46:35;;;;;;;0.20;0.20;;;16.10;99.90;;;;;;4973725;28;20046;-76
2022/07/02 06:49:02;;;;;;;0.47;0.32;;;16.20;99.90;;;;;;4973666;28;20034;-74
2022/07/02 06:51:28;;;;;;;0.57;0.55;;;16.00;99.90;;;;;;4990162;28;20097;-73
2022/07/02 06:54:00;;;;;;;0.10;0.10;;;16.00;99.90;;;;;;4992192;28;20113;-75
2022/07/02 06:56:32;;;;;;;0.32;0.32;;;16.20;99.90;;;;;;4976151;28;20034;-76
2022/07/02 06:58:58;;;;;;;1.80;1.70;;;16.30;99.90;;;;;;4975643;28;20030;-74
2022/07/02 07:01:23;;;;;;;0.20;0.20;;;16.00;99.90;;;;;;4991739;28;20592;-76
2022/07/02 07:03:49;;;;;;;0.10;0.10;;;16.00;99.90;;;;;;4992131;28;20034;-75
2022/07/02 07:06:15;;;;;;;0.70;0.55;;;16.00;99.90;;;;;;4992110;28;20027;-76
2022/07/02 07:08:41;;;;;;;0.10;0.10;;;16.00;99.90;;;;;;4992818;28;20496;-75
2022/07/02 07:11:06;;;;;;;5.20;4.80;;;16.10;99.90;;;;;;4992829;28;20486;-73
2022/07/02 07:13:32;;;;;;;1.05;0.95;;;15.90;99.90;;;;;;4977410;28;20482;-75
2022/07/02 07:15:59;;;;;;;0.40;0.40;;;16.00;99.90;;;;;;4983562;28;20114;-75
2022/07/02 07:18:25;;;;;;;0.32;0.32;;;16.00;99.90;;;;;;4990463;28;20390;-75
2022/07/02 07:20:53;;;;;;;0.57;0.57;;;15.90;99.90;;;;;;4991019;28;20032;-73
2022/07/02 07:23:18;;;;;;;0.10;0.10;;;15.90;99.90;;;;;;4992827;28;20026;-75
2022/07/02 07:25:44;;;;;;;1.45;0.77;;;16.10;99.90;;;;;;4975673;28;20057;-75
2022/07/02 07:28:10;;;;;;;0.30;0.30;;;16.20;99.90;;;;;;4992748;28;20085;-75
2022/07/02 07:30:36;;;;;;;1.20;0.80;;;16.10;99.90;;;;;;4992267;28;20555;-75
2022/07/02 07:33:01;;;;;;;2.15;0.50;;;16.30;99.90;;;;;;4992584;28;20367;-74
2022/07/02 07:35:27;;;;;;;0.22;0.22;;;16.30;99.90;;;;;;4993130;28;20080;-75
2022/07/02 07:37:59;;;;;;;0.40;0.40;;;16.20;99.90;;;;;;4991785;28;20046;-75
2022/07/02 07:40:26;;;;;;;0.00;0.00;;;16.20;99.90;;;;;;4992645;28;20030;-75
2022/07/02 07:42:53;;;;;;;0.20;0.20;;;16.40;99.90;;;;;;4993439;28;20705;-75
2022/07/02 07:45:19;;;;;;;1.35;0.50;;;16.50;99.90;;;;;;4993196;28;20421;-75
2022/07/02 07:47:44;;;;;;;0.40;0.40;;;16.50;99.90;;;;;;4991762;28;20034;-73
2022/07/02 07:50:10;;;;;;;0.32;0.32;;;16.40;99.90;;;;;;4993186;28;20029;-74
2022/07/02 07:52:36;;;;;;;0.05;0.05;;;16.60;99.90;;;;;;4993109;28;20061;-76
2022/07/02 07:55:02;;;;;;;0.00;0.00;;;16.80;99.90;;;;;;4992988;28;20058;-76
2022/07/02 07:57:28;;;;;;;0.50;0.50;;;16.90;99.90;;;;;;4991856;28;20026;-75
2022/07/02 07:59:53;;;;;;;1.52;1.00;;;17.20;99.90;;;;;;4992095;28;20529;-74
2022/07/02 08:02:19;;;;;;;0.30;0.30;;;17.30;99.90;;;;;;4975661;28;20031;-75
2022/07/02 08:04:45;;;;;;;0.17;0.17;;;17.30;99.90;;;;;;4991788;28;20022;-74
2022/07/02 08:07:11;;;;;;;0.57;0.57;;;17.60;99.90;;;;;;4992017;28;20434;-74
2022/07/02 08:09:37;;;;;;;0.68;0.68;;;17.70;99.90;;;;;;4991333;28;20425;-75
2022/07/02 08:12:04;;;;;;;0.20;0.20;;;18.00;99.90;;;;;;4991774;28;20106;-74
2022/07/02 08:14:29;;;;;;;0.35;0.35;;;18.10;99.90;;;;;;4992813;28;20106;-75
2022/07/02 08:16:55;;;;;;;0.35;0.32;;;18.30;99.90;;;;;;4967680;28;20073;-75
2022/07/02 08:19:21;;;;;;;1.27;1.17;;;18.50;99.90;;;;;;4972871;28;20160;-75
2022/07/02 08:21:47;;;;;;;0.60;0.47;;;18.50;99.90;;;;;;4972525;28;20529;-75
2022/07/02 08:24:12;;;;;;;0.20;0.20;;;18.60;99.90;;;;;;4956139;28;20109;-75
2022/07/02 08:26:38;;;;;;;0.20;0.20;;;18.90;99.90;;;;;;4989025;28;20037;-75
2022/07/02 08:29:04;;;;;;;0.13;0.13;;;19.10;99.90;;;;;;4991339;28;20399;-74
2022/07/02 08:31:30;;;;;;;4.05;0.73;;;19.60;99.90;;;;;;4975285;28;20030;-75
2022/07/02 08:33:55;;;;;;;0.30;0.30;;;19.70;99.90;;;;;;4991805;28;20026;-75
2022/07/02 08:36:21;;;;;;;0.10;0.10;;;19.70;99.90;;;;;;4992876;28;20025;-75
2022/07/02 08:38:47;;;;;;;1.27;0.82;;;19.60;99.90;;;;;;4992356;28;20065;-75
2022/07/02 08:41:13;;;;;;;0.10;0.10;;;19.50;99.90;;;;;;4974441;28;20037;-75
2022/07/02 08:43:40;;;;;;;0.50;0.50;;;19.60;99.90;;;;;;4994479;28;20517;-75
2022/07/02 08:46:07;;;;;;;0.85;0.60;;;19.60;99.90;;;;;;4994611;28;20029;-75
2022/07/02 08:48:34;;;;;;;0.10;0.10;;;19.70;99.90;;;;;;4978232;28;20066;-75
2022/07/02 08:51:00;;;;;;;0.35;0.30;;;19.70;99.90;;;;;;4977874;28;20026;-74
2022/07/02 08:53:27;;;;;;;0.10;0.10;;;19.60;99.90;;;;;;4994467;28;20037;-74
2022/07/02 08:55:54;;;;;;;0.05;0.05;;;19.70;99.90;;;;;;4994214;28;20025;-74
2022/07/02 08:58:22;;;;;;;0.20;0.15;;;20.00;99.90;;;;;;4994276;28;20402;-74
2022/07/02 09:00:48;;;;;;;0.60;0.60;;;19.90;99.90;;;;;;4995368;28;20061;-75
2022/07/02 09:03:18;;;;;;;0.28;0.28;;;20.10;99.90;;;;;;4995589;28;20037;-74
2022/07/02 09:05:47;;;;;;;0.30;0.30;;;20.40;99.90;;;;;;4993998;28;20029;-75
2022/07/02 09:08:13;;;;;;;1.15;0.88;;;20.50;99.90;;;;;;4993908;28;20489;-74
2022/07/02 09:10:39;;;;;;;7.85;0.95;;;20.70;99.90;;;;;;4977662;28;20165;-75
2022/07/02 09:13:06;;;;;;;0.32;0.25;;;20.30;99.90;;;;;;4995345;28;20382;-75
2022/07/02 09:15:34;;;;;;;0.15;0.15;;;20.40;99.90;;;;;;4995293;28;20018;-75
2022/07/02 09:17:59;;;;;;;0.35;0.35;;;20.90;99.90;;;;;;4995239;28;20381;-75
2022/07/02 09:20:25;;;;;;;0.25;0.20;;;21.30;99.90;;;;;;4977483;28;20054;-75
2022/07/02 09:22:52;;;;;;;0.30;0.28;;;21.30;99.90;;;;;;4984247;28;20027;-74
2022/07/02 09:25:27;;;;;;;0.10;0.10;;;21.40;99.90;;;;;;4968599;28;20441;-75
2022/07/02 09:28:03;;;;;;;0.32;0.32;;;21.80;99.90;;;;;;4977581;28;20133;-75
2022/07/02 09:30:31;;;;;;;0.10;0.10;;;22.00;99.90;;;;;;4993517;28;20026;-75
2022/07/02 09:35:41;;;;;;;0.20;0.20;;;22.30;99.90;;;;;;4994677;28;20505;-75
2022/07/02 09:38:11;;;;;;;0.10;0.10;;;22.70;99.90;;;;;;4994874;28;20022;-74
2022/07/02 09:40:49;;;;;;;0.20;0.20;;;22.80;99.90;;;;;;4993571;28;20022;-74
2022/07/02 09:55:28;;;;;;;0.10;0.10;;;23.10;99.90;;;;;;5011248;28;20041;-76
2022/07/02 09:57:55;;;;;;;0.30;0.30;;;23.20;99.90;;;;;;4996901;28;20421;-78
2022/07/02 10:00:23;;;;;;;0.03;0.03;;;22.90;99.90;;;;;;5014428;28;20061;-76
2022/07/02 10:02:51;;;;;;;0.30;0.30;;;23.00;99.90;;;;;;5015567;28;20479;-77
2022/07/02 10:05:29;;;;;;;0.00;0.00;;;23.00;99.90;;;;;;5012899;28;20053;-76
2022/07/02 10:07:56;;;;;;;0.70;0.57;;;23.40;99.90;;;;;;5013643;28;20028;-77
2022/07/02 10:10:30;;;;;;;0.10;0.10;;;23.50;98.50;;;;;;5012219;28;20018;-77
2022/07/02 10:12:57;;;;;;;0.20;0.20;;;23.50;98.20;;;;;;5013353;28;20041;-77
2022/07/02 10:15:29;;;;;;;0.75;0.52;;;23.90;96.00;;;;;;5013512;28;20050;-77
2022/07/02 10:17:56;;;;;;;0.08;0.08;;;24.00;92.40;;;;;;4996179;28;20125;-77
2022/07/02 10:20:23;;;;;;;0.30;0.30;;;24.30;91.70;;;;;;5012691;28;20022;-77
2022/07/02 10:22:50;;;;;;;0.00;0.00;;;24.20;90.80;;;;;;4996976;28;20032;-78
2022/07/02 10:25:18;;;;;;;2.72;0.10;;;24.20;90.90;;;;;;5014668;28;20049;-76
2022/07/02 10:27:45;;;;;;;0.10;0.10;;;24.10;88.70;;;;;;5013076;28;20496;-76
2022/07/02 10:30:12;;;;;;;0.10;0.10;;;24.10;89.00;;;;;;5014823;28;20018;-76
2022/07/02 10:33:05;;;;;;;0.05;0.05;;;24.40;89.40;;;;;;5013376;28;20101;-77
2022/07/02 10:35:33;;;;;;;0.10;0.10;;;24.70;88.50;;;;;;4996919;28;20049;-76
2022/07/02 10:38:00;;;;;;;0.00;0.00;;;24.60;87.70;;;;;;5013492;28;20030;-77
2022/07/02 10:40:27;;;;;;;0.03;0.03;;;24.70;83.30;;;;;;4996053;28;20037;-76
2022/07/02 10:42:53;;;;;;;0.10;0.10;;;24.70;82.10;;;;;;5013145;28;20048;-76
2022/07/02 10:45:23;;;;;;;0.20;0.20;;;24.80;83.70;;;;;;5015119;28;20029;-78
2022/07/02 10:48:02;;;;;;;0.20;0.20;;;24.30;82.80;;;;;;4998948;28;20037;-77
2022/07/02 10:50:39;;;;;;;0.35;0.35;;;24.60;83.00;;;;;;5014211;28;20022;-77
2022/07/02 10:53:12;;;;;;;0.10;0.10;;;24.70;81.20;;;;;;5014208;28;20121;-77
2022/07/02 10:55:59;;;;;;;0.10;0.08;;;25.00;80.60;;;;;;5014223;28;20481;-77
2022/07/02 10:58:37;;;;;;;0.00;0.00;;;24.90;78.80;;;;;;5014172;28;20018;-77
2022/07/02 11:01:17;;;;;;;0.63;0.43;;;24.90;78.70;;;;;;5012280;28;20045;-77
2022/07/02 11:04:00;;;;;;;0.00;0.00;;;24.90;79.20;;;;;;5014231;28;20022;-77
2022/07/02 11:06:27;;;;;;;0.00;0.00;;;25.30;79.20;;;;;;5013846;28;20109;-77
2022/07/02 11:08:58;;;;;;;0.13;0.13;;;25.70;77.20;;;;;;5013002;28;20026;-76
2022/07/02 11:11:33;;;;;;;0.97;0.97;;;25.40;74.20;;;;;;5013408;28;20483;-76
2022/07/02 11:14:00;;;;;;;0.35;0.30;;;25.50;75.10;;;;;;5012864;28;20022;-74
2022/07/02 11:16:29;;;;;;;0.10;0.10;;;25.40;72.30;;;;;;5011928;28;20037;-75
2022/07/02 11:18:58;;;;;;;0.10;0.10;;;25.10;74.60;;;;;;5012240;28;20041;-74
2022/07/02 11:21:24;;;;;;;0.15;0.15;;;25.00;74.70;;;;;;5011288;28;20029;-75
2022/07/02 11:23:51;;;;;;;1.10;0.30;;;25.10;76.20;;;;;;5010925;28;20070;-75
2022/07/02 11:26:21;;;;;;;0.00;0.00;;;25.30;74.00;;;;;;5011364;28;20026;-75
2022/07/02 11:28:48;;;;;;;0.20;0.20;;;25.30;73.80;;;;;;5011079;28;20113;-74
2022/07/02 11:31:15;;;;;;;0.30;0.30;;;25.40;72.90;;;;;;5012546;28;20101;-75
2022/07/02 11:33:47;;;;;;;0.00;0.00;;;25.30;73.90;;;;;;5011186;28;20076;-75
2022/07/02 11:36:13;;;;;;;0.52;0.52;;;25.40;73.50;;;;;;5012574;28;20033;-75
2022/07/02 11:38:46;;;;;;;0.13;0.13;;;25.20;72.70;;;;;;5012322;28;20108;-75
2022/07/02 11:41:17;;;;;;;0.00;0.00;;;24.90;74.10;;;;;;5010865;28;20025;-75
2022/07/02 11:43:44;;;;;;;0.20;0.20;;;25.20;74.60;;;;;;5011338;28;20026;-75
2022/07/02 11:46:12;;;;;;;0.00;0.00;;;25.20;72.00;;;;;;4994682;28;20065;-75
2022/07/02 11:48:38;;;;;;;0.00;0.00;;;25.20;73.10;;;;;;5012104;28;20105;-75
2022/07/02 11:51:04;;;;;;;0.00;0.00;;;25.00;71.30;;;;;;5010765;28;20061;-75
2022/07/02 11:53:30;;;;;;;0.10;0.10;;;24.90;73.00;;;;;;5010897;28;20133;-75
2022/07/02 11:56:08;;;;;;;0.38;0.22;;;24.70;72.80;;;;;;5011036;28;20026;-76
2022/07/02 11:58:43;;;;;;;0.35;0.35;;;24.90;73.60;;;;;;5012736;28;20035;-76
2022/07/02 12:01:30;;;;;;;0.00;0.00;;;24.90;73.30;;;;;;5010747;28;20436;-76
2022/07/02 12:04:04;;;;;;;0.32;0.20;;;24.80;73.90;;;;;;5010545;28;20130;-76
2022/07/02 12:06:38;;;;;;;0.10;0.10;;;24.70;75.00;;;;;;5012175;28;20080;-76
2022/07/02 12:09:07;;;;;;;0.10;0.10;;;24.70;74.90;;;;;;5010526;28;20370;-76
2022/07/02 12:11:35;;;;;;;0.10;0.10;;;24.60;75.40;;;;;;5011539;28;20018;-76
2022/07/02 12:14:03;;;;;;;0.20;0.20;;;24.60;75.80;;;;;;5010681;28;20056;-76
2022/07/02 12:16:29;;;;;;;0.13;0.13;;;24.70;75.80;;;;;;5012001;28;20014;-76
2022/07/02 12:18:59;;;;;;;0.00;0.00;;;24.70;74.60;;;;;;5013539;28;20048;-76
2022/07/02 12:21:32;;;;;;;0.15;0.15;;;24.50;72.90;;;;;;5014649;28;20022;-76
2022/07/02 12:23:58;;;;;;;0.05;0.05;;;24.20;73.30;;;;;;5016100;28;20022;-76
2022/07/02 12:26:26;;;;;;;0.25;0.25;;;24.10;74.40;;;;;;5014330;28;20088;-76
2022/07/02 12:31:47;;;;;;;0.10;0.10;;;24.10;73.40;;;;;;5014292;28;20030;-76
2022/07/02 12:34:13;;;;;;;0.10;0.10;;;24.10;71.70;;;;;;5015426;28;20018;-76
2022/07/02 12:36:52;;;;;;;0.20;0.20;;;23.70;71.80;;;;;;5015471;28;20033;-76
2022/07/02 12:39:20;;;;;;;0.17;0.17;;;23.80;69.60;;;;;;5014151;28;20148;-76
2022/07/02 12:41:46;;;;;;;0.10;0.10;;;23.60;69.40;;;;;;5014324;28;20096;-76
2022/07/02 12:44:22;;;;;;;0.08;0.08;;;23.60;68.10;;;;;;5014212;28;20030;-75
2022/07/02 12:46:53;;;;;;;0.10;0.10;;;23.60;69.20;;;;;;5014466;28;20109;-75
2022/07/02 12:49:22;;;;;;;0.27;0.27;;;23.70;67.60;;;;;;5013825;28;20029;-76
2022/07/02 12:51:59;;;;;;;0.10;0.10;;;23.60;66.50;;;;;;5014163;28;20029;-75
2022/07/02 12:54:36;;;;;;;0.17;0.03;;;23.50;68.40;;;;;;5015165;28;20029;-75
2022/07/02 12:57:22;;;;;;;0.35;0.32;;;23.60;70.40;;;;;;5015195;28;20033;-76
2022/07/02 12:59:49;;;;;;;0.20;0.20;;;23.60;70.70;;;;;;5013717;28;20397;-75
2022/07/02 13:02:24;;;;;;;0.20;0.20;;;23.60;69.70;;;;;;5015149;28;20049;-74
2022/07/02 13:04:50;;;;;;;0.00;0.00;;;23.60;69.30;;;;;;5015114;28;20029;-74
2022/07/02 13:07:16;;;;;;;0.17;0.17;;;23.60;70.90;;;;;;5013580;28;20034;-76
2022/07/02 13:09:44;;;;;;;0.10;0.10;;;23.60;70.50;;;;;;5014760;28;20088;-75
2022/07/02 13:12:11;;;;;;;0.20;0.20;;;23.70;69.80;;;;;;5013523;28;20034;-74
2022/07/02 13:14:40;;;;;;;0.10;0.10;;;23.70;69.50;;;;;;5013956;28;20137;-74